createdAt,value
2023-11-15T00:00:33.374Z,8.57
2023-11-15T00:03:08.011Z,8.58
2023-11-15T00:05:41.432Z,8.59
2023-11-15T00:08:15.466Z,8.61
2023-11-15T00:10:49.241Z,8.62
2023-11-15T00:13:20.817Z,8.63
2023-11-15T00:15:54.426Z,8.61
2023-11-15T00:18:28.339Z,8.64
2023-11-15T00:21:01.928Z,8.66
2023-11-15T00:23:36.557Z,8.67
2023-11-15T00:26:10.526Z,8.70
2023-11-15T00:28:45.872Z,8.72
2023-11-15T00:31:21.109Z,8.73
2023-11-15T00:33:55.304Z,8.75
2023-11-15T00:36:29.659Z,8.74
2023-11-15T00:39:03.668Z,8.75
2023-11-15T00:41:37.100Z,8.76
2023-11-15T00:44:10.876Z,8.74
2023-11-15T00:46:43.974Z,8.72
2023-11-15T00:49:17.826Z,8.70
2023-11-15T00:51:53.385Z,8.70
2023-11-15T00:54:27.024Z,8.71
2023-11-15T00:56:59.983Z,8.72
2023-11-15T00:59:39.196Z,8.68
2023-11-15T01:02:13.438Z,8.71
2023-11-15T01:04:48.698Z,8.68
2023-11-15T01:07:22.538Z,8.68
2023-11-15T01:09:56.974Z,8.69
2023-11-15T01:12:30.791Z,8.68
2023-11-15T01:15:06.684Z,8.68
2023-11-15T01:17:40.455Z,8.69
2023-11-15T01:20:16.637Z,8.69
2023-11-15T01:22:50.471Z,8.70
2023-11-15T01:25:23.680Z,8.71
2023-11-15T01:27:57.555Z,8.72
2023-11-15T01:30:43.762Z,8.74
2023-11-15T01:33:27.217Z,8.75
2023-11-15T01:36:20.349Z,8.76
2023-11-15T01:38:54.570Z,8.77
2023-11-15T01:41:27.952Z,8.79
2023-11-15T01:44:01.230Z,8.80
2023-11-15T01:46:35.183Z,8.80
2023-11-15T01:49:09.045Z,8.79
2023-11-15T01:51:42.860Z,8.78
2023-11-15T01:54:18.568Z,8.76
2023-11-15T01:56:52.544Z,8.72
2023-11-15T01:59:26.299Z,8.72
2023-11-15T02:02:00.686Z,8.67
2023-11-15T02:04:34.335Z,8.64
2023-11-15T02:07:09.177Z,8.66
2023-11-15T02:09:44.063Z,8.67
2023-11-15T02:12:19.964Z,8.65
2023-11-15T02:14:53.308Z,8.66
2023-11-15T02:17:24.885Z,8.63
2023-11-15T02:19:58.354Z,8.59
2023-11-15T02:22:33.148Z,8.61
2023-11-15T02:25:07.446Z,8.60
2023-11-15T02:27:40.964Z,8.62
2023-11-15T02:30:13.617Z,8.56
2023-11-15T02:32:50.727Z,8.56
2023-11-15T02:35:38.822Z,8.58
2023-11-15T02:38:12.733Z,8.60
2023-11-15T02:40:47.077Z,8.61
2023-11-15T02:43:20.680Z,8.59
2023-11-15T02:45:54.494Z,8.59
2023-11-15T02:48:28.491Z,8.54
2023-11-15T02:51:02.361Z,8.52
2023-11-15T02:53:35.834Z,8.53
2023-11-15T02:56:10.166Z,8.51
2023-11-15T02:58:45.971Z,8.51
2023-11-15T03:01:19.642Z,8.47
2023-11-15T03:03:50.939Z,8.43
2023-11-15T03:06:24.601Z,8.38
2023-11-15T03:08:58.750Z,8.42
2023-11-15T03:11:32.831Z,8.41
2023-11-15T03:14:06.643Z,8.39
2023-11-15T03:16:38.118Z,8.36
2023-11-15T03:19:12.010Z,8.32
2023-11-15T03:21:45.325Z,8.29
2023-11-15T03:24:19.030Z,8.27
2023-11-15T03:26:53.224Z,8.30
2023-11-15T03:29:26.950Z,8.28
2023-11-15T03:31:58.715Z,8.25
2023-11-15T03:34:32.700Z,8.21
2023-11-15T03:37:06.470Z,8.23
2023-11-15T03:39:40.934Z,8.23
2023-11-15T03:42:15.159Z,8.23
2023-11-15T03:44:49.810Z,8.23
2023-11-15T03:47:25.301Z,8.23
2023-11-15T03:49:59.456Z,8.24
2023-11-15T03:52:32.990Z,8.24
2023-11-15T03:55:04.163Z,8.19
2023-11-15T03:57:37.754Z,8.13
2023-11-15T04:00:14.472Z,8.13
2023-11-15T04:02:48.647Z,8.16
2023-11-15T04:05:22.447Z,8.16
2023-11-15T04:07:55.960Z,8.15
2023-11-15T04:10:29.569Z,8.15
2023-11-15T04:13:04.414Z,8.14
2023-11-15T04:15:39.115Z,8.12
2023-11-15T04:18:12.134Z,8.11
2023-11-15T04:20:45.769Z,8.12
2023-11-15T04:23:19.714Z,8.13
2023-11-15T04:25:53.283Z,8.11
2023-11-15T04:28:26.590Z,8.10
2023-11-15T04:30:59.925Z,8.10
2023-11-15T04:33:33.454Z,8.08
2023-11-15T04:36:05.342Z,8.10
2023-11-15T04:38:39.176Z,8.04
2023-11-15T04:41:13.447Z,8.05
2023-11-15T04:43:46.945Z,8.04
2023-11-15T04:46:18.413Z,8.04
2023-11-15T04:48:54.832Z,7.99
2023-11-15T04:51:28.975Z,8.00
2023-11-15T04:54:02.044Z,8.01
2023-11-15T04:56:37.528Z,8.02
2023-11-15T04:59:12.568Z,8.00
2023-11-15T05:01:47.651Z,7.99
2023-11-15T05:04:21.576Z,8.01
2023-11-15T05:06:56.539Z,8.04
2023-11-15T05:09:30.073Z,8.05
2023-11-15T05:12:01.959Z,8.05
2023-11-15T05:14:37.739Z,7.98
2023-11-15T05:17:11.869Z,7.99
2023-11-15T05:19:47.314Z,7.99
2023-11-15T05:22:20.760Z,8.02
2023-11-15T05:24:56.915Z,8.00
2023-11-15T05:27:31.116Z,8.00
2023-11-15T05:30:03.119Z,7.98
2023-11-15T05:32:38.389Z,7.93
2023-11-15T05:35:15.891Z,7.92
2023-11-15T05:37:50.174Z,7.92
2023-11-15T05:40:23.221Z,7.94
2023-11-15T05:42:56.675Z,7.93
2023-11-15T05:45:29.790Z,7.91
2023-11-15T05:48:03.450Z,7.91
2023-11-15T05:50:34.757Z,7.87
2023-11-15T05:53:08.780Z,7.82
2023-11-15T05:55:43.975Z,7.83
2023-11-15T05:58:18.481Z,7.84
2023-11-15T06:00:56.053Z,7.83
2023-11-15T06:03:31.223Z,7.79
2023-11-15T06:06:05.176Z,7.78
2023-11-15T06:08:40.418Z,7.77
2023-11-15T06:11:14.016Z,7.77
2023-11-15T06:13:45.804Z,7.76
2023-11-15T06:16:20.929Z,7.70
2023-11-15T06:18:55.292Z,7.73
2023-11-15T06:21:29.118Z,7.74
2023-11-15T06:24:02.913Z,7.75
2023-11-15T06:26:40.339Z,7.74
2023-11-15T06:29:14.662Z,7.70
2023-11-15T06:31:50.358Z,7.71
2023-11-15T06:34:23.887Z,7.73
2023-11-15T06:36:57.856Z,7.73
2023-11-15T06:39:31.463Z,7.73
2023-11-15T06:42:05.649Z,7.76
2023-11-15T06:44:39.097Z,7.70
2023-11-15T06:47:16.740Z,7.69
2023-11-15T06:49:50.394Z,7.71
2023-11-15T06:52:23.650Z,7.69
2023-11-15T06:54:57.714Z,7.71
2023-11-15T06:57:53.857Z,7.72
2023-11-15T07:00:42.269Z,7.72
2023-11-15T07:03:18.451Z,7.71
2023-11-15T07:05:53.314Z,7.69
2023-11-15T07:08:26.647Z,7.72
2023-11-15T07:11:02.119Z,7.77
2023-11-15T07:13:36.585Z,7.76
2023-11-15T07:16:13.773Z,7.78
2023-11-15T07:18:47.745Z,7.80
2023-11-15T07:21:21.943Z,7.83
2023-11-15T07:23:56.466Z,7.87
2023-11-15T07:26:37.556Z,7.87
2023-11-15T07:29:14.970Z,7.87
2023-11-15T07:31:53.734Z,7.86
2023-11-15T07:34:28.939Z,7.84
2023-11-15T07:37:03.260Z,7.82
2023-11-15T07:39:38.263Z,7.84
2023-11-15T07:42:17.084Z,7.86
2023-11-15T07:44:52.881Z,7.93
2023-11-15T07:47:27.242Z,7.93
2023-11-15T07:50:01.148Z,7.97
2023-11-15T07:52:35.098Z,7.98
2023-11-15T07:55:13.652Z,7.98
2023-11-15T07:57:48.198Z,7.99
2023-11-15T08:00:26.293Z,8.02
2023-11-15T08:03:00.044Z,8.05
2023-11-15T08:05:31.556Z,8.05
2023-11-15T08:08:07.742Z,8.04
2023-11-15T08:10:48.548Z,8.09
2023-11-15T08:13:23.548Z,8.11
2023-11-15T08:15:58.254Z,8.14
2023-11-15T08:18:33.932Z,8.20
2023-11-15T08:21:11.216Z,8.19
2023-11-15T08:23:47.011Z,8.20
2023-11-15T08:26:25.743Z,8.19
2023-11-15T08:29:00.695Z,8.22
2023-11-15T08:31:35.171Z,8.25
2023-11-15T08:34:10.103Z,8.22
2023-11-15T08:36:45.971Z,8.26
2023-11-15T08:39:20.005Z,8.29
2023-11-15T08:41:56.326Z,8.31
2023-11-15T08:44:30.456Z,8.33
2023-11-15T08:47:05.839Z,8.35
2023-11-15T08:49:40.507Z,8.36
2023-11-15T08:52:15.137Z,8.37
2023-11-15T08:54:49.794Z,8.40
2023-11-15T08:57:23.853Z,8.39
2023-11-15T08:59:59.500Z,8.42
2023-11-15T09:02:35.930Z,8.45
2023-11-15T09:05:10.090Z,8.45
2023-11-15T09:07:43.735Z,8.46
2023-11-15T09:10:18.187Z,8.47
2023-11-15T09:12:51.517Z,8.47
2023-11-15T09:15:26.153Z,8.45
2023-11-15T09:18:02.040Z,8.47
2023-11-15T09:20:38.662Z,8.49
2023-11-15T09:23:22.461Z,8.48
2023-11-15T09:26:03.447Z,8.50
2023-11-15T09:28:39.025Z,8.52
2023-11-15T09:31:15.640Z,8.50
2023-11-15T09:33:49.546Z,8.49
2023-11-15T09:36:23.169Z,8.52
2023-11-15T09:38:58.699Z,8.55
2023-11-15T09:41:35.459Z,8.58
2023-11-15T09:44:13.113Z,8.58
2023-11-15T09:46:50.730Z,8.62
2023-11-15T09:49:27.491Z,8.63
2023-11-15T09:52:02.322Z,8.67
2023-11-15T09:54:41.233Z,8.69
2023-11-15T09:57:16.973Z,8.74
2023-11-15T10:00:01.215Z,8.72
2023-11-15T10:02:45.108Z,8.69
2023-11-15T10:05:25.571Z,8.75
2023-11-15T10:08:13.149Z,8.77
2023-11-15T10:10:48.997Z,8.80
2023-11-15T10:13:24.321Z,8.79
2023-11-15T10:15:59.403Z,8.79
2023-11-15T10:18:37.252Z,8.79
2023-11-15T10:21:19.558Z,8.82
2023-11-15T10:23:56.413Z,8.82
2023-11-15T10:26:42.003Z,8.82
2023-11-15T10:29:15.549Z,8.85
2023-11-15T10:31:58.416Z,8.84
2023-11-15T10:34:36.553Z,8.83
2023-11-15T10:37:12.647Z,8.86
2023-11-15T10:39:48.068Z,8.93
2023-11-15T10:42:24.796Z,8.93
2023-11-15T10:45:06.463Z,8.96
2023-11-15T10:47:54.520Z,8.95
2023-11-15T10:50:32.873Z,8.94
2023-11-15T10:53:12.667Z,8.96
2023-11-15T10:55:56.986Z,8.98
2023-11-15T10:58:33.017Z,9.01
2023-11-15T11:01:09.392Z,9.05
2023-11-15T11:03:45.531Z,9.05
2023-11-15T11:06:49.320Z,9.09
2023-11-15T11:09:37.536Z,9.09
2023-11-15T11:12:19.590Z,9.03
2023-11-15T11:15:29.541Z,9.06
2023-11-15T11:18:15.822Z,9.05
2023-11-15T11:21:05.546Z,9.02
2023-11-15T11:23:40.397Z,9.04
2023-11-15T11:26:39.125Z,9.05
2023-11-15T11:29:14.483Z,9.11
2023-11-15T11:32:09.449Z,9.18
2023-11-15T11:35:32.228Z,9.23
2023-11-15T11:38:09.111Z,9.21
2023-11-15T11:40:43.062Z,9.11
2023-11-15T11:43:28.736Z,9.08
2023-11-15T11:46:17.761Z,9.03
2023-11-15T11:49:01.792Z,8.92
2023-11-15T11:51:33.409Z,8.85
2023-11-15T11:54:07.330Z,8.76
2023-11-15T11:56:41.839Z,8.82
2023-11-15T11:59:15.784Z,8.81
2023-11-15T12:01:56.227Z,8.82
2023-11-15T12:04:29.768Z,8.77
2023-11-15T12:07:05.886Z,8.80
2023-11-15T12:09:44.157Z,8.78
2023-11-15T12:12:20.738Z,8.77
2023-11-15T12:15:00.358Z,8.83
2023-11-15T12:17:43.429Z,8.85
2023-11-15T12:20:28.996Z,8.84
2023-11-15T12:23:11.628Z,8.90
2023-11-15T12:25:54.394Z,8.96
2023-11-15T12:28:28.893Z,9.02
2023-11-15T12:31:05.459Z,9.03
2023-11-15T12:33:42.153Z,9.03
2023-11-15T12:36:17.391Z,9.05
2023-11-15T12:39:00.243Z,9.06
2023-11-15T12:41:46.322Z,9.03
2023-11-15T12:44:21.588Z,8.97
2023-11-15T12:46:59.918Z,9.00
2023-11-15T12:49:36.635Z,8.95
2023-11-15T12:52:10.790Z,8.94
2023-11-15T12:54:57.972Z,8.96
2023-11-15T12:57:30.657Z,8.95
2023-11-15T13:00:11.233Z,8.92
2023-11-15T13:02:44.458Z,8.93
2023-11-15T13:05:26.708Z,8.88
2023-11-15T13:08:00.209Z,8.84
2023-11-15T13:10:34.470Z,8.86
2023-11-15T13:13:12.884Z,8.78
2023-11-15T13:15:46.770Z,8.77
2023-11-15T13:18:22.112Z,8.70
2023-11-15T13:20:59.695Z,8.57
2023-11-15T13:23:33.670Z,8.52
2023-11-15T13:26:11.029Z,8.46
2023-11-15T13:29:03.622Z,8.42
2023-11-15T13:31:43.022Z,8.34
2023-11-15T13:34:20.836Z,8.33
2023-11-15T13:36:55.877Z,8.28
2023-11-15T13:39:48.816Z,8.27
2023-11-15T13:42:33.131Z,8.27
2023-11-15T13:45:08.784Z,8.29
2023-11-15T13:47:43.690Z,8.34
2023-11-15T13:50:17.762Z,8.29
2023-11-15T13:52:53.310Z,8.26
2023-11-15T13:55:30.702Z,8.23
2023-11-15T13:58:04.480Z,8.27
2023-11-15T14:00:36.595Z,8.26
2023-11-15T14:03:12.040Z,8.17
2023-11-15T14:05:45.481Z,8.21
2023-11-15T14:08:17.958Z,8.19
2023-11-15T14:10:51.633Z,8.12
2023-11-15T14:13:26.031Z,8.14
2023-11-15T14:16:04.082Z,8.14
2023-11-15T14:18:37.761Z,8.13
2023-11-15T14:21:15.927Z,8.11
2023-11-15T14:23:57.158Z,8.09
2023-11-15T14:26:34.460Z,8.04
2023-11-15T14:29:09.821Z,7.99
2023-11-15T14:31:46.114Z,7.94
2023-11-15T14:34:19.885Z,7.90
2023-11-15T14:36:56.599Z,7.89
2023-11-15T14:39:33.555Z,7.85
2023-11-15T14:42:08.440Z,7.81
2023-11-15T14:44:42.827Z,7.72
2023-11-15T14:47:18.283Z,7.72
2023-11-15T14:49:52.465Z,7.72
2023-11-15T14:52:28.073Z,7.64
2023-11-15T14:55:05.898Z,7.64
2023-11-15T14:57:40.766Z,7.61
2023-11-15T15:00:22.309Z,7.58
2023-11-15T15:02:59.174Z,7.62
2023-11-15T15:05:32.661Z,7.63
2023-11-15T15:08:06.368Z,7.62
2023-11-15T15:10:41.315Z,7.61
2023-11-15T15:13:15.670Z,7.56
2023-11-15T15:15:49.687Z,7.59
2023-11-15T15:18:32.340Z,7.55
2023-11-15T15:21:18.135Z,7.54
2023-11-15T15:23:52.220Z,7.51
2023-11-15T15:26:28.835Z,7.52
2023-11-15T15:29:05.744Z,7.53
2023-11-15T15:31:41.408Z,7.54
2023-11-15T15:34:15.675Z,7.51
2023-11-15T15:36:51.010Z,7.51
2023-11-15T15:39:27.462Z,7.50
2023-11-15T15:42:01.134Z,7.47
2023-11-15T15:44:35.455Z,7.47
2023-11-15T15:47:09.612Z,7.47
2023-11-15T15:49:48.405Z,7.49
2023-11-15T15:52:23.991Z,7.48
2023-11-15T15:54:57.742Z,7.45
2023-11-15T15:57:31.166Z,7.43
2023-11-15T16:00:04.763Z,7.41
2023-11-15T16:02:39.065Z,7.42
2023-11-15T16:05:15.801Z,7.43
2023-11-15T16:07:54.509Z,7.45
2023-11-15T16:10:30.029Z,7.43
2023-11-15T16:13:04.792Z,7.47
2023-11-15T16:15:38.530Z,7.48
2023-11-15T16:18:17.812Z,7.46
2023-11-15T16:20:52.172Z,7.46
2023-11-15T16:23:26.307Z,7.42
2023-11-15T16:26:01.442Z,7.42
2023-11-15T16:28:42.928Z,7.36
2023-11-15T16:31:21.192Z,7.31
2023-11-15T16:33:58.921Z,7.31
2023-11-15T16:36:39.553Z,7.33
2023-11-15T16:39:17.480Z,7.33
2023-11-15T16:41:57.042Z,7.31
2023-11-15T16:44:35.552Z,7.30
2023-11-15T16:47:11.880Z,7.25
2023-11-15T16:49:48.604Z,7.23
2023-11-15T16:52:25.122Z,7.17
2023-11-15T16:54:58.840Z,7.17
2023-11-15T16:57:32.658Z,7.15
2023-11-15T17:00:07.772Z,7.16
2023-11-15T17:02:43.379Z,7.18
2023-11-15T17:05:20.081Z,7.16
2023-11-15T17:07:53.409Z,7.13
2023-11-15T17:10:28.797Z,7.13
2023-11-15T17:13:05.745Z,7.12
2023-11-15T17:15:39.317Z,7.10
2023-11-15T17:18:13.754Z,7.10
2023-11-15T17:20:49.704Z,7.09
2023-11-15T17:23:24.550Z,7.11
2023-11-15T17:26:00.303Z,7.12
2023-11-15T17:28:34.505Z,7.05
2023-11-15T17:31:08.295Z,7.07
2023-11-15T17:33:44.728Z,7.04
2023-11-15T17:36:18.510Z,7.02
2023-11-15T17:38:50.292Z,7.02
2023-11-15T17:41:24.064Z,6.98
2023-11-15T17:43:55.217Z,6.99
2023-11-15T17:46:30.380Z,6.96
2023-11-15T17:49:03.627Z,6.94
2023-11-15T17:51:37.124Z,6.96
2023-11-15T17:54:12.257Z,6.89
2023-11-15T17:56:47.260Z,6.87
2023-11-15T17:59:21.434Z,6.82
2023-11-15T18:01:58.252Z,6.83
2023-11-15T18:04:32.111Z,6.81
2023-11-15T18:07:06.679Z,6.80
2023-11-15T18:09:41.704Z,6.81
2023-11-15T18:12:15.303Z,6.77
2023-11-15T18:14:48.674Z,6.75
2023-11-15T18:17:22.762Z,6.74
2023-11-15T18:19:53.829Z,6.77
2023-11-15T18:22:28.840Z,6.70
2023-11-15T18:25:02.405Z,6.75
2023-11-15T18:27:37.772Z,6.79
2023-11-15T18:30:15.122Z,6.80
2023-11-15T18:32:49.966Z,6.79
2023-11-15T18:35:23.426Z,6.81
2023-11-15T18:37:58.515Z,6.86
2023-11-15T18:40:33.738Z,6.84
2023-11-15T18:43:07.599Z,6.76
2023-11-15T18:45:42.080Z,6.83
2023-11-15T18:48:15.594Z,6.79
2023-11-15T18:50:49.446Z,6.74
2023-11-15T18:53:23.994Z,6.74
2023-11-15T18:56:01.684Z,6.71
2023-11-15T18:58:40.402Z,6.69
2023-11-15T19:01:15.052Z,6.68
2023-11-15T19:03:49.591Z,6.66
2023-11-15T19:06:28.154Z,6.58
2023-11-15T19:09:23.114Z,6.60
2023-11-15T19:13:06.067Z,6.60
2023-11-15T19:24:07.474Z,6.44
2023-11-15T19:26:39.882Z,6.48
2023-11-15T19:29:13.364Z,6.43
2023-11-15T19:31:48.325Z,6.39
2023-11-15T19:34:20.474Z,6.39
2023-11-15T19:36:53.942Z,6.34
2023-11-15T19:39:27.676Z,6.34
2023-11-15T19:42:00.027Z,6.34
2023-11-15T19:44:32.154Z,6.35
2023-11-15T19:47:06.378Z,6.35
2023-11-15T19:49:40.458Z,6.31
2023-11-15T19:52:16.045Z,6.34
2023-11-15T19:54:50.512Z,6.29
2023-11-15T19:57:22.797Z,6.32
2023-11-15T19:59:55.664Z,6.27
2023-11-15T20:02:34.364Z,6.27
2023-11-15T20:05:12.387Z,6.29
2023-11-15T20:07:44.673Z,6.24
2023-11-15T20:10:17.151Z,6.25
2023-11-15T20:12:49.997Z,6.22
2023-11-15T20:15:23.509Z,6.20
2023-11-15T20:17:53.935Z,6.12
2023-11-15T20:20:26.477Z,6.09
2023-11-15T20:23:02.765Z,6.09
2023-11-15T20:25:35.329Z,6.10
2023-11-15T20:28:08.564Z,6.08
2023-11-15T20:30:41.275Z,6.05
2023-11-15T20:33:13.900Z,6.03
2023-11-15T20:35:46.434Z,6.05
2023-11-15T20:38:19.240Z,6.03
2023-11-15T20:40:52.624Z,6.04
2023-11-15T20:43:25.706Z,6.02
2023-11-15T20:46:10.312Z,6.01
2023-11-15T20:48:49.014Z,5.93
2023-11-15T20:51:22.871Z,5.93
2023-11-15T20:53:57.018Z,5.90
2023-11-15T20:56:29.354Z,5.87
2023-11-15T20:59:08.394Z,5.77
2023-11-15T21:01:40.842Z,5.78
2023-11-15T21:04:20.418Z,5.79
2023-11-15T21:06:54.482Z,5.75
2023-11-15T21:09:26.586Z,5.77
2023-11-15T21:11:58.781Z,5.75
2023-11-15T21:14:31.597Z,5.71
2023-11-15T21:17:03.806Z,5.72
2023-11-15T21:19:36.052Z,5.73
2023-11-15T21:22:08.643Z,5.73
2023-11-15T21:24:42.817Z,5.74
2023-11-15T21:27:15.937Z,5.73
2023-11-15T21:29:47.939Z,5.75
2023-11-15T21:32:20.213Z,5.75
2023-11-15T21:34:52.207Z,5.77
2023-11-15T21:37:25.425Z,5.75
2023-11-15T21:39:58.225Z,5.77
2023-11-15T21:42:30.309Z,5.74
2023-11-15T21:45:02.281Z,5.73
2023-11-15T21:47:34.847Z,5.70
2023-11-15T21:50:07.913Z,5.68
2023-11-15T21:52:41.023Z,5.76
2023-11-15T21:55:13.839Z,5.81
2023-11-15T21:57:47.280Z,5.80
2023-11-15T22:00:22.584Z,5.76
2023-11-15T22:02:57.296Z,5.70
2023-11-15T22:05:31.210Z,5.73
2023-11-15T22:08:04.360Z,5.75
2023-11-15T22:10:36.248Z,5.71
2023-11-15T22:13:09.072Z,5.72
2023-11-15T22:15:41.523Z,5.74
2023-11-15T22:18:18.122Z,5.73
2023-11-15T22:20:56.606Z,5.72
2023-11-15T22:23:30.328Z,5.73
2023-11-15T22:26:02.258Z,5.74
2023-11-15T22:28:34.317Z,5.76
2023-11-15T22:31:07.483Z,5.76
2023-11-15T22:33:39.498Z,5.78
2023-11-15T22:36:12.693Z,5.72
2023-11-15T22:38:45.982Z,5.70
2023-11-15T22:41:18.505Z,5.72
2023-11-15T22:43:50.917Z,5.74
2023-11-15T22:46:25.886Z,5.74
2023-11-15T22:48:58.510Z,5.73
2023-11-15T22:51:30.825Z,5.69
2023-11-15T22:54:03.027Z,5.68
2023-11-15T22:56:35.193Z,5.67
2023-11-15T22:59:08.944Z,5.66
2023-11-15T23:01:40.941Z,5.58
2023-11-15T23:04:17.189Z,5.63
2023-11-15T23:06:55.724Z,5.62
2023-11-15T23:09:28.373Z,5.58
2023-11-15T23:12:00.524Z,5.61
2023-11-15T23:14:33.238Z,5.62
2023-11-15T23:17:05.731Z,5.61
2023-11-15T23:19:37.918Z,5.59
2023-11-15T23:22:10.061Z,5.60
2023-11-15T23:24:42.900Z,5.64
2023-11-15T23:27:17.212Z,5.65
2023-11-15T23:29:49.471Z,5.62
2023-11-15T23:32:23.110Z,5.61
2023-11-15T23:34:56.866Z,5.62
2023-11-15T23:37:28.846Z,5.61
2023-11-15T23:40:01.235Z,5.61
2023-11-15T23:42:33.385Z,5.63
2023-11-15T23:45:08.196Z,5.61
2023-11-15T23:47:40.273Z,5.58
2023-11-15T23:50:14.364Z,5.55
2023-11-15T23:52:46.352Z,5.54
2023-11-15T23:55:19.413Z,5.53
2023-11-15T23:57:52.199Z,5.55
